Time;durP1;ratioP1;P1;durP2;ratioP2;P2;SDS_P1;SDS_P2;PMS_P1;PMS_P2;Temp;Humidity;BMP_temperature;BMP_pressure;BME280_temperature;BME280_humidity;BME280_pressure;Samples;Min_cycle;Max_cycle;Signal;HPM_P1;HPM_P2
2024/01/03 00:02:00;;;;;;;;;;;9.70;99.90;;;;;;5091622;28;19970;-69
2024/01/03 00:04:27;;;;;;;;;;;9.70;99.90;;;;;;5091871;28;20003;-69
2024/01/03 00:06:55;;;;;;;;;;;9.80;99.90;;;;;;5091596;28;20038;-69
2024/01/03 00:09:22;;;;;;;;;;;9.90;99.90;;;;;;5091763;28;19982;-69
2024/01/03 00:11:48;;;;;;;;;;;10.00;99.90;;;;;;5087581;28;19981;-69
2024/01/03 00:14:23;;;;;;;;;;;10.10;99.90;;;;;;5093243;28;19976;-69
2024/01/03 00:16:49;;;;;;;;;;;10.10;99.90;;;;;;5094197;28;19952;-69
2024/01/03 00:19:17;;;;;;;;;;;10.10;99.90;;;;;;5095707;28;19985;-69
2024/01/03 00:21:44;;;;;;;;;;;10.00;99.90;;;;;;5094193;28;19924;-69
2024/01/03 00:24:14;;;;;;;;;;;10.00;99.90;;;;;;5095485;28;19932;-69
2024/01/03 00:26:41;;;;;;;;;;;10.00;99.90;;;;;;5095477;28;20351;-69
2024/01/03 00:29:19;;;;;;;;;;;10.00;99.90;;;;;;5092399;28;19970;-69
2024/01/03 00:31:46;;;;;;;;;;;10.00;99.90;;;;;;5094601;28;20324;-69
2024/01/03 00:34:25;;;;;;;;;;;10.00;99.90;;;;;;5095376;28;20438;-69
2024/01/03 00:36:53;;;;;;;;;;;10.00;99.90;;;;;;5095414;28;19928;-69
2024/01/03 00:39:25;;;;;;;;;;;10.00;99.90;;;;;;5095227;28;19924;-69
2024/01/03 00:41:51;;;;;;;;;;;10.10;99.90;;;;;;5094455;28;20384;-69
2024/01/03 00:44:18;;;;;;;;;;;10.10;99.90;;;;;;5095445;28;19924;-69
2024/01/03 00:46:44;;;;;;;;;;;10.20;99.90;;;;;;5093507;28;19947;-69
2024/01/03 00:49:11;;;;;;;;;;;10.10;99.90;;;;;;5095080;28;19924;-69
2024/01/03 00:51:38;;;;;;;;;;;10.10;99.90;;;;;;5094887;28;20440;-69
2024/01/03 00:54:04;;;;;;;;;;;10.10;99.90;;;;;;5094896;28;19924;-69
2024/01/03 00:56:32;;;;;;;;;;;10.00;99.90;;;;;;5094203;28;19932;-69
2024/01/03 00:58:59;;;;;;;;;;;10.00;99.90;;;;;;5094715;28;19928;-69
2024/01/03 01:01:25;;;;;;;;;;;10.10;99.90;;;;;;5095013;28;19950;-70
2024/01/03 01:03:52;;;;;;;;;;;10.10;99.90;;;;;;5093026;28;19982;-69
2024/01/03 01:06:18;;;;;;;;;;;10.10;99.90;;;;;;5094800;28;20372;-69
2024/01/03 01:08:45;;;;;;;;;;;10.00;99.90;;;;;;5086688;28;20020;-70
2024/01/03 01:11:11;;;;;;;;;;;9.90;99.90;;;;;;5094725;28;19932;-69
2024/01/03 01:13:39;;;;;;;;;;;9.80;99.90;;;;;;5094645;28;19985;-69
2024/01/03 01:16:06;;;;;;;;;;;9.80;99.90;;;;;;5100877;27;19924;-69
2024/01/03 01:18:32;;;;;;;;;;;9.70;99.90;;;;;;5094465;28;19928;-70
2024/01/03 01:20:59;;;;;;;;;;;9.50;99.90;;;;;;5092597;28;20343;-70
2024/01/03 01:23:25;;;;;;;;;;;9.40;99.90;;;;;;5093937;28;19931;-69
2024/01/03 01:25:52;;;;;;;;;;;9.20;99.90;;;;;;5094507;28;19970;-69
2024/01/03 01:28:18;;;;;;;;;;;9.10;99.90;;;;;;5093981;28;20386;-69
2024/01/03 01:30:46;;;;;;;;;;;9.00;99.90;;;;;;5092315;28;19986;-69
2024/01/03 01:33:13;;;;;;;;;;;9.00;99.90;;;;;;5094149;28;20439;-69
2024/01/03 01:35:38;;;;;;;;;;;9.00;99.90;;;;;;5094134;28;19928;-70
2024/01/03 01:38:06;;;;;;;;;;;8.90;99.90;;;;;;5092494;28;19920;-69
2024/01/03 01:40:32;;;;;;;;;;;8.90;99.90;;;;;;5093873;28;20453;-69
2024/01/03 01:42:59;;;;;;;;;;;8.90;99.90;;;;;;5094080;28;19984;-69
2024/01/03 01:45:25;;;;;;;;;;;8.90;99.90;;;;;;5094230;28;19924;-69
2024/01/03 01:47:53;;;;;;;;;;;8.80;99.90;;;;;;5093685;28;20574;-70
2024/01/03 01:50:20;;;;;;;;;;;8.70;99.90;;;;;;5093729;28;20450;-69
2024/01/03 01:52:48;;;;;;;;;;;8.70;99.90;;;;;;5093615;28;19977;-69
2024/01/03 01:55:14;;;;;;;;;;;8.80;99.90;;;;;;5093275;28;19932;-69
2024/01/03 01:57:42;;;;;;;;;;;8.80;99.90;;;;;;5093200;28;19924;-69
2024/01/03 02:00:09;;;;;;;;;;;8.90;99.90;;;;;;5091084;28;19950;-69
2024/01/03 02:02:36;;;;;;;;;;;8.90;99.90;;;;;;5093561;28;20378;-69
2024/01/03 02:05:04;;;;;;;;;;;9.00;99.90;;;;;;5093602;28;19950;-70
2024/01/03 02:07:31;;;;;;;;;;;9.00;99.90;;;;;;5093830;28;19924;-69
2024/01/03 02:09:57;;;;;;;;;;;9.10;99.90;;;;;;5092107;28;19945;-70
2024/01/03 02:12:27;;;;;;;;;;;9.10;99.90;;;;;;5088703;28;19959;-69
2024/01/03 02:14:54;;;;;;;;;;;9.20;99.90;;;;;;5101538;28;20014;-70
2024/01/03 02:17:21;;;;;;;;;;;9.20;99.90;;;;;;5093500;28;19925;-69
2024/01/03 02:19:47;;;;;;;;;;;9.20;99.90;;;;;;5092801;28;20398;-69
2024/01/03 02:22:15;;;;;;;;;;;9.30;99.90;;;;;;5093513;28;19995;-69
2024/01/03 02:24:42;;;;;;;;;;;9.40;99.90;;;;;;5093315;28;20301;-69
2024/01/03 02:27:08;;;;;;;;;;;9.40;99.90;;;;;;5093310;28;19928;-69
2024/01/03 02:29:35;;;;;;;;;;;9.40;99.90;;;;;;5084929;28;19928;-69
2024/01/03 02:32:01;;;;;;;;;;;9.50;99.90;;;;;;5082544;28;19969;-69
2024/01/03 02:34:28;;;;;;;;;;;9.60;99.90;;;;;;5088895;28;19928;-69
2024/01/03 02:36:55;;;;;;;;;;;9.60;99.90;;;;;;5093244;28;20013;-69
2024/01/03 02:39:23;;;;;;;;;;;9.70;99.90;;;;;;5092307;28;19938;-69
2024/01/03 02:41:49;;;;;;;;;;;9.80;99.90;;;;;;5093097;28;19924;-69
2024/01/03 02:44:16;;;;;;;;;;;9.80;99.90;;;;;;5092887;28;19924;-70
2024/01/03 02:46:42;;;;;;;;;;;9.80;99.90;;;;;;5090000;28;19928;-69
2024/01/03 02:49:10;;;;;;;;;;;9.80;99.90;;;;;;5086393;28;19977;-69
2024/01/03 02:51:36;;;;;;;;;;;9.70;99.90;;;;;;5092944;28;19969;-70
2024/01/03 02:54:03;;;;;;;;;;;9.60;99.90;;;;;;5082267;28;19977;-69
2024/01/03 02:56:30;;;;;;;;;;;9.70;99.90;;;;;;5090013;28;19977;-70
2024/01/03 02:58:57;;;;;;;;;;;9.70;99.90;;;;;;5091639;28;19924;-69
2024/01/03 03:01:23;;;;;;;;;;;9.70;99.90;;;;;;5086242;28;19924;-69
2024/01/03 03:03:50;;;;;;;;;;;9.70;99.90;;;;;;5092268;28;20398;-69
2024/01/03 03:06:17;;;;;;;;;;;9.70;99.90;;;;;;5089379;28;20030;-69
2024/01/03 03:08:43;;;;;;;;;;;9.70;99.90;;;;;;5092398;28;19941;-69
2024/01/03 03:11:10;;;;;;;;;;;9.70;99.90;;;;;;5088186;28;19924;-69
2024/01/03 03:13:37;;;;;;;;;;;9.70;99.90;;;;;;5092270;28;19924;-69
2024/01/03 03:16:06;;;;;;;;;;;9.70;99.90;;;;;;5092151;28;19969;-70
2024/01/03 03:18:33;;;;;;;;;;;9.80;99.90;;;;;;5084819;28;19932;-69
2024/01/03 03:21:00;;;;;;;;;;;9.80;99.90;;;;;;5092041;28;20327;-69
2024/01/03 03:23:26;;;;;;;;;;;9.70;99.90;;;;;;5089363;28;20081;-69
2024/01/03 03:25:53;;;;;;;;;;;9.70;99.90;;;;;;5084880;28;20382;-69
2024/01/03 03:28:20;;;;;;;;;;;9.70;99.90;;;;;;5091994;28;19969;-69
2024/01/03 03:30:48;;;;;;;;;;;9.70;99.90;;;;;;5090116;28;19950;-69
2024/01/03 03:33:15;;;;;;;;;;;9.70;99.90;;;;;;5091339;28;19928;-69
2024/01/03 03:35:41;;;;;;;;;;;9.60;99.90;;;;;;5089463;28;19924;-70
2024/01/03 03:38:08;;;;;;;;;;;9.60;99.90;;;;;;5092130;28;20352;-69
2024/01/03 03:40:34;;;;;;;;;;;9.60;99.90;;;;;;5091922;28;19936;-69
2024/01/03 03:43:01;;;;;;;;;;;9.70;99.90;;;;;;5091037;28;19928;-69
2024/01/03 03:45:27;;;;;;;;;;;9.70;99.90;;;;;;5092320;28;19970;-70
2024/01/03 03:47:55;;;;;;;;;;;9.70;99.90;;;;;;5091731;28;19981;-69
2024/01/03 03:50:21;;;;;;;;;;;9.70;99.90;;;;;;5091790;28;19924;-69
2024/01/03 03:52:48;;;;;;;;;;;9.80;99.90;;;;;;5090265;28;19977;-69
2024/01/03 03:55:16;;;;;;;;;;;9.90;99.90;;;;;;5086414;28;19924;-69
2024/01/03 03:57:42;;;;;;;;;;;9.90;99.90;;;;;;5091650;28;19981;-69
2024/01/03 04:00:10;;;;;;;;;;;9.90;99.90;;;;;;5087387;28;20386;-69
2024/01/03 04:02:36;;;;;;;;;;;9.90;99.90;;;;;;5091515;28;19938;-69
2024/01/03 04:05:04;;;;;;;;;;;9.90;99.90;;;;;;5090512;28;19932;-69
2024/01/03 04:07:31;;;;;;;;;;;9.90;99.90;;;;;;5090046;28;19928;-69
2024/01/03 04:09:57;;;;;;;;;;;9.90;99.90;;;;;;5090098;28;19924;-69
2024/01/03 04:12:24;;;;;;;;;;;9.90;99.90;;;;;;5091968;28;19969;-69
2024/01/03 04:14:50;;;;;;;;;;;10.00;99.90;;;;;;5085523;28;19928;-69
2024/01/03 04:17:17;;;;;;;;;;;10.00;99.90;;;;;;5091753;28;19977;-69
2024/01/03 04:19:43;;;;;;;;;;;10.00;99.90;;;;;;5091406;28;19924;-69
2024/01/03 04:22:11;;;;;;;;;;;10.00;99.90;;;;;;5091694;28;19977;-69
2024/01/03 04:24:38;;;;;;;;;;;10.00;99.90;;;;;;5091284;28;19924;-69
2024/01/03 04:27:04;;;;;;;;;;;10.00;99.90;;;;;;5085772;28;20022;-69
2024/01/03 04:29:31;;;;;;;;;;;9.90;99.90;;;;;;5088558;28;19928;-69
2024/01/03 04:31:58;;;;;;;;;;;9.90;99.90;;;;;;5090877;28;19950;-69
2024/01/03 04:34:24;;;;;;;;;;;9.90;99.90;;;;;;5091338;28;19924;-69
2024/01/03 04:36:51;;;;;;;;;;;9.90;99.90;;;;;;5091402;28;19928;-69
2024/01/03 04:39:18;;;;;;;;;;;9.90;99.90;;;;;;5091151;28;19985;-69
2024/01/03 04:41:45;;;;;;;;;;;9.90;99.90;;;;;;5091527;28;19924;-69
2024/01/03 04:44:12;;;;;;;;;;;9.90;99.90;;;;;;5088076;28;19932;-69
2024/01/03 04:46:38;;;;;;;;;;;9.90;99.90;;;;;;5089534;28;19928;-69
2024/01/03 04:49:04;;;;;;;;;;;9.90;99.90;;;;;;5090129;28;19924;-69
2024/01/03 04:51:31;;;;;;;;;;;9.80;99.90;;;;;;5091034;28;19969;-69
2024/01/03 04:53:57;;;;;;;;;;;9.80;99.90;;;;;;5089883;28;19947;-69
2024/01/03 04:56:26;;;;;;;;;;;9.80;99.90;;;;;;5086976;28;19928;-69
2024/01/03 04:58:52;;;;;;;;;;;9.70;99.90;;;;;;5088441;28;19928;-69
2024/01/03 05:01:19;;;;;;;;;;;9.70;99.90;;;;;;5085577;28;19924;-69
2024/01/03 05:03:45;;;;;;;;;;;9.60;99.90;;;;;;5087202;28;20632;-69
2024/01/03 05:06:12;;;;;;;;;;;9.60;99.90;;;;;;5094721;28;19928;-69
2024/01/03 05:08:38;;;;;;;;;;;9.60;99.90;;;;;;5093702;28;19978;-69
2024/01/03 05:11:05;;;;;;;;;;;9.70;99.90;;;;;;5091449;28;19925;-69
2024/01/03 05:13:32;;;;;;;;;;;9.70;99.90;;;;;;5094351;28;19924;-70
2024/01/03 05:15:59;;;;;;;;;;;9.70;99.90;;;;;;5089727;28;19977;-69
2024/01/03 05:18:26;;;;;;;;;;;9.80;99.90;;;;;;5094605;28;19978;-69
2024/01/03 05:20:53;;;;;;;;;;;9.80;99.90;;;;;;5093961;28;19928;-70
2024/01/03 05:23:19;;;;;;;;;;;9.80;99.90;;;;;;5093977;28;19950;-70
2024/01/03 05:25:47;;;;;;;;;;;9.70;99.90;;;;;;5085214;28;19925;-70
2024/01/03 05:28:13;;;;;;;;;;;9.70;99.90;;;;;;5088187;28;20330;-69
2024/01/03 05:30:41;;;;;;;;;;;9.70;99.90;;;;;;5091938;28;19946;-70
2024/01/03 05:33:08;;;;;;;;;;;9.70;99.90;;;;;;5094102;28;19925;-69
2024/01/03 05:35:34;;;;;;;;;;;9.70;99.90;;;;;;5093669;28;19928;-70
2024/01/03 05:38:01;;;;;;;;;;;9.70;99.90;;;;;;5087677;28;19924;-69
2024/01/03 05:40:27;;;;;;;;;;;9.70;99.90;;;;;;5093922;28;19970;-69
2024/01/03 05:42:54;;;;;;;;;;;9.70;99.90;;;;;;5093124;28;19993;-69
2024/01/03 05:45:20;;;;;;;;;;;9.70;99.90;;;;;;5088652;28;19925;-69
2024/01/03 05:47:48;;;;;;;;;;;9.70;99.90;;;;;;5093904;28;19924;-69
2024/01/03 05:50:15;;;;;;;;;;;9.80;99.90;;;;;;5092800;28;19931;-69
2024/01/03 05:52:41;;;;;;;;;;;9.80;99.90;;;;;;5093939;28;19931;-70
2024/01/03 05:55:08;;;;;;;;;;;9.80;99.90;;;;;;5089035;28;19978;-69
2024/01/03 05:57:35;;;;;;;;;;;9.80;99.90;;;;;;5090452;28;19928;-70
2024/01/03 06:00:01;;;;;;;;;;;9.80;99.90;;;;;;5088348;28;20332;-70
2024/01/03 06:02:28;;;;;;;;;;;9.80;99.90;;;;;;5086988;28;19928;-69
2024/01/03 06:04:55;;;;;;;;;;;9.80;99.90;;;;;;5087494;28;19978;-70
2024/01/03 06:07:22;;;;;;;;;;;9.70;99.90;;;;;;5093654;28;20374;-69
2024/01/03 06:09:48;;;;;;;;;;;9.70;99.90;;;;;;5093449;28;19969;-70
2024/01/03 06:12:15;;;;;;;;;;;9.70;99.90;;;;;;5093552;28;19924;-70
2024/01/03 06:14:41;;;;;;;;;;;9.70;99.90;;;;;;5088787;28;19928;-70
2024/01/03 06:17:08;;;;;;;;;;;9.70;99.90;;;;;;5086087;28;19977;-70
2024/01/03 06:19:34;;;;;;;;;;;9.70;99.90;;;;;;5091979;28;19950;-70
2024/01/03 06:22:02;;;;;;;;;;;9.60;99.90;;;;;;5090749;28;19924;-70
2024/01/03 06:24:29;;;;;;;;;;;9.60;99.90;;;;;;5093339;28;19970;-69
2024/01/03 06:26:55;;;;;;;;;;;9.60;99.90;;;;;;5093026;28;19932;-70
2024/01/03 06:29:22;;;;;;;;;;;9.50;99.90;;;;;;5090367;28;20308;-70
2024/01/03 06:31:49;;;;;;;;;;;9.40;99.90;;;;;;5090172;28;20019;-69
2024/01/03 06:34:15;;;;;;;;;;;9.40;99.90;;;;;;5087776;28;20301;-69
2024/01/03 06:36:42;;;;;;;;;;;9.40;99.90;;;;;;5092801;28;19931;-69
2024/01/03 06:39:09;;;;;;;;;;;9.50;99.90;;;;;;5091404;28;20356;-69
2024/01/03 06:41:36;;;;;;;;;;;9.50;99.90;;;;;;5092837;28;19928;-69
2024/01/03 06:44:02;;;;;;;;;;;9.50;99.90;;;;;;5092691;28;20386;-69
2024/01/03 06:46:29;;;;;;;;;;;9.50;99.90;;;;;;5092976;28;19927;-69
2024/01/03 06:48:56;;;;;;;;;;;9.50;99.90;;;;;;5092637;28;19932;-69
2024/01/03 06:51:23;;;;;;;;;;;9.50;99.90;;;;;;5092889;28;20366;-69
2024/01/03 06:53:49;;;;;;;;;;;9.50;99.90;;;;;;5092767;28;19978;-69
2024/01/03 06:56:21;;;;;;;;;;;9.40;99.90;;;;;;5092773;28;20001;-69
2024/01/03 06:58:48;;;;;;;;;;;9.50;99.90;;;;;;5092424;28;19960;-69
2024/01/03 07:01:14;;;;;;;;;;;9.50;99.90;;;;;;5092162;28;19924;-67
2024/01/03 07:03:41;;;;;;;;;;;9.50;99.90;;;;;;5092566;28;19977;-67
2024/01/03 07:06:07;;;;;;;;;;;9.50;99.90;;;;;;5092322;28;20398;-67
2024/01/03 07:08:34;;;;;;;;;;;9.60;99.90;;;;;;5092531;28;19973;-67
2024/01/03 07:11:01;;;;;;;;;;;9.70;99.90;;;;;;5092178;28;19924;-67
2024/01/03 07:13:28;;;;;;;;;;;9.70;99.90;;;;;;5092283;28;20336;-67
2024/01/03 07:15:55;;;;;;;;;;;9.70;99.90;;;;;;5090021;28;19924;-67
2024/01/03 07:18:21;;;;;;;;;;;9.70;99.90;;;;;;5092385;28;19928;-67
2024/01/03 07:20:48;;;;;;;;;;;9.70;99.90;;;;;;5092330;28;19928;-68
2024/01/03 07:23:14;;;;;;;;;;;9.70;99.90;;;;;;5092057;28;20460;-67
2024/01/03 07:25:41;;;;;;;;;;;9.60;99.90;;;;;;5091680;28;19928;-67
2024/01/03 07:28:08;;;;;;;;;;;9.60;99.90;;;;;;5091974;28;20409;-67
2024/01/03 07:30:36;;;;;;;;;;;9.60;99.90;;;;;;5089879;28;19978;-67
2024/01/03 07:33:04;;;;;;;;;;;9.60;99.90;;;;;;5089277;28;20011;-67
2024/01/03 07:35:30;;;;;;;;;;;9.70;99.90;;;;;;5092086;28;20473;-67
2024/01/03 07:37:57;;;;;;;;;;;9.60;99.90;;;;;;5091825;28;19973;-67
2024/01/03 07:40:23;;;;;;;;;;;9.60;99.90;;;;;;5091485;28;20385;-67
2024/01/03 07:42:50;;;;;;;;;;;9.60;99.90;;;;;;5091982;28;19977;-67
2024/01/03 07:45:16;;;;;;;;;;;9.50;99.90;;;;;;5092145;28;19931;-67
2024/01/03 07:47:44;;;;;;;;;;;9.60;99.90;;;;;;5091876;28;19978;-67
2024/01/03 07:50:11;;;;;;;;;;;9.50;99.90;;;;;;5091602;28;20400;-67
2024/01/03 07:52:38;;;;;;;;;;;9.50;99.90;;;;;;5091738;28;19947;-67
2024/01/03 07:55:05;;;;;;;;;;;9.40;99.90;;;;;;5091656;28;19924;-67
2024/01/03 07:57:31;;;;;;;;;;;9.30;99.90;;;;;;5091960;28;19924;-67
2024/01/03 07:59:58;;;;;;;;;;;9.20;99.90;;;;;;5091154;28;19924;-67
2024/01/03 08:02:24;;;;;;;;;;;9.10;99.90;;;;;;5091607;28;19930;-67
2024/01/03 08:04:52;;;;;;;;;;;9.10;99.90;;;;;;5091675;28;19924;-67
2024/01/03 08:07:18;;;;;;;;;;;9.00;99.90;;;;;;5091454;28;19924;-67
2024/01/03 08:09:45;;;;;;;;;;;9.00;99.90;;;;;;5091306;28;20443;-67
2024/01/03 08:12:11;;;;;;;;;;;9.00;99.90;;;;;;5091638;28;19924;-67
2024/01/03 08:14:38;;;;;;;;;;;9.10;99.90;;;;;;5083182;28;19978;-67
2024/01/03 08:17:05;;;;;;;;;;;9.00;99.90;;;;;;5091612;28;19924;-67
2024/01/03 08:19:31;;;;;;;;;;;8.90;99.90;;;;;;5091359;28;20399;-67
2024/01/03 08:21:59;;;;;;;;;;;8.80;99.90;;;;;;5091279;28;19931;-67
2024/01/03 08:24:26;;;;;;;;;;;8.70;99.90;;;;;;5091432;28;20451;-67
2024/01/03 08:26:52;;;;;;;;;;;8.60;99.90;;;;;;5091373;28;20404;-67
2024/01/03 08:29:19;;;;;;;;;;;8.60;99.90;;;;;;5089178;28;19924;-67
2024/01/03 08:31:47;;;;;;;;;;;8.50;99.90;;;;;;5091380;28;20355;-67
2024/01/03 08:34:13;;;;;;;;;;;8.50;99.90;;;;;;5091858;28;19931;-67
2024/01/03 08:36:41;;;;;;;;;;;8.50;99.90;;;;;;5091874;28;20290;-67
2024/01/03 08:39:09;;;;;;;;;;;8.40;99.90;;;;;;5095454;28;19928;-67
2024/01/03 08:41:35;;;;;;;;;;;8.40;99.90;;;;;;5095339;28;19977;-67
2024/01/03 08:44:04;;;;;;;;;;;8.40;99.90;;;;;;5095225;28;19950;-67
2024/01/03 08:46:31;;;;;;;;;;;8.40;99.90;;;;;;5095136;28;19925;-67
2024/01/03 08:48:57;;;;;;;;;;;8.50;99.90;;;;;;5094668;28;20458;-67
2024/01/03 08:51:24;;;;;;;;;;;8.50;99.90;;;;;;5094726;28;19928;-67
2024/01/03 08:53:50;;;;;;;;;;;8.50;99.90;;;;;;5095080;28;20394;-68
2024/01/03 08:56:19;;;;;;;;;;;8.50;99.90;;;;;;5095163;28;19931;-67
2024/01/03 08:58:46;;;;;;;;;;;8.50;99.90;;;;;;5094717;28;20340;-67
2024/01/03 09:01:15;;;;;;;;;;;8.50;99.90;;;;;;5094678;28;20378;-67
2024/01/03 09:03:42;;;;;;;;;;;8.50;99.90;;;;;;5094627;28;19970;-67
2024/01/03 09:06:08;;;;;;;;;;;8.50;99.90;;;;;;5095099;28;19993;-67
2024/01/03 09:08:35;;;;;;;;;;;8.50;99.90;;;;;;5094699;28;19936;-67
2024/01/03 09:11:07;;;;;;;;;;;8.50;99.90;;;;;;5090631;28;19970;-67
2024/01/03 09:13:37;;;;;;;;;;;8.60;99.90;;;;;;5094609;28;20448;-67
2024/01/03 09:16:05;;;;;;;;;;;8.70;99.90;;;;;;5091405;28;20011;-67
2024/01/03 09:18:31;;;;;;;;;;;8.70;99.90;;;;;;5094447;28;19931;-67
2024/01/03 09:20:58;;;;;;;;;;;8.80;99.90;;;;;;5094361;28;19928;-67
2024/01/03 09:23:24;;;;;;;;;;;8.90;99.90;;;;;;5094360;28;19978;-67
2024/01/03 09:25:55;;;;;;;;;;;9.10;99.90;;;;;;5094574;28;19924;-67
2024/01/03 09:28:21;;;;;;;;;;;9.20;99.90;;;;;;5093942;28;19977;-67
2024/01/03 09:30:49;;;;;;;;;;;9.30;99.90;;;;;;5092277;28;20418;-66
2024/01/03 09:33:16;;;;;;;;;;;9.50;99.90;;;;;;5094246;28;20253;-67
2024/01/03 09:35:43;;;;;;;;;;;9.70;99.90;;;;;;5094229;28;20406;-67
2024/01/03 09:38:09;;;;;;;;;;;9.80;99.90;;;;;;5094081;28;19924;-67
2024/01/03 09:40:36;;;;;;;;;;;9.90;99.90;;;;;;5094054;28;19950;-67
2024/01/03 09:43:02;;;;;;;;;;;9.90;99.90;;;;;;5093783;28;20293;-67
2024/01/03 09:45:29;;;;;;;;;;;10.00;99.90;;;;;;5093834;28;20398;-66
2024/01/03 09:47:57;;;;;;;;;;;10.00;99.90;;;;;;5093868;28;19932;-67
2024/01/03 09:50:23;;;;;;;;;;;10.10;99.90;;;;;;5093912;28;19947;-67
2024/01/03 09:52:50;;;;;;;;;;;10.20;99.90;;;;;;5093988;28;19924;-67
2024/01/03 09:55:17;;;;;;;;;;;10.40;99.90;;;;;;5093731;28;19924;-67
2024/01/03 09:57:44;;;;;;;;;;;10.50;99.90;;;;;;5093529;28;20443;-67
2024/01/03 10:00:10;;;;;;;;;;;10.40;99.90;;;;;;5093468;28;20394;-67
2024/01/03 10:02:37;;;;;;;;;;;10.70;99.90;;;;;;5093743;28;19947;-67
2024/01/03 10:05:05;;;;;;;;;;;11.00;99.90;;;;;;5093802;28;19924;-67
2024/01/03 10:07:32;;;;;;;;;;;11.30;99.90;;;;;;5093577;28;19928;-67
2024/01/03 10:09:58;;;;;;;;;;;11.20;99.90;;;;;;5093354;28;19932;-67
2024/01/03 10:12:25;;;;;;;;;;;11.20;99.90;;;;;;5093226;28;19954;-67
2024/01/03 10:14:51;;;;;;;;;;;11.10;99.90;;;;;;5085259;28;20045;-67
2024/01/03 10:17:18;;;;;;;;;;;11.00;99.90;;;;;;5093479;28;19925;-67
2024/01/03 10:19:44;;;;;;;;;;;10.80;99.90;;;;;;5093413;28;19924;-67
2024/01/03 10:22:12;;;;;;;;;;;10.70;99.90;;;;;;5093271;28;20439;-66
2024/01/03 10:24:41;;;;;;;;;;;10.50;99.90;;;;;;5093396;28;19928;-66
2024/01/03 10:27:08;;;;;;;;;;;10.60;99.90;;;;;;5093116;28;19924;-66
2024/01/03 10:29:35;;;;;;;;;;;10.70;99.90;;;;;;5090678;28;20398;-66
2024/01/03 10:32:03;;;;;;;;;;;11.10;99.90;;;;;;5088515;28;19924;-67
2024/01/03 10:34:29;;;;;;;;;;;11.30;99.90;;;;;;5093101;28;20282;-67
2024/01/03 10:36:56;;;;;;;;;;;11.10;99.90;;;;;;5093109;28;19962;-67
2024/01/03 10:39:25;;;;;;;;;;;11.10;99.90;;;;;;5092715;28;19924;-67
2024/01/03 10:41:54;;;;;;;;;;;11.20;99.90;;;;;;5092720;28;20038;-67
2024/01/03 10:44:21;;;;;;;;;;;11.50;99.90;;;;;;5092671;28;20352;-66
2024/01/03 10:46:48;;;;;;;;;;;11.70;99.90;;;;;;5093002;28;19931;-66
2024/01/03 10:49:15;;;;;;;;;;;11.90;99.90;;;;;;5092573;28;20234;-67
2024/01/03 10:51:43;;;;;;;;;;;12.00;99.90;;;;;;5092792;28;20019;-67
2024/01/03 10:54:11;;;;;;;;;;;12.00;99.90;;;;;;5092931;28;20306;-67
2024/01/03 10:56:39;;;;;;;;;;;12.00;99.90;;;;;;5092835;28;19924;-68
2024/01/03 10:59:06;;;;;;;;;;;11.80;99.90;;;;;;5092709;28;19924;-67
2024/01/03 11:01:34;;;;;;;;;;;11.70;99.90;;;;;;5092521;28;19928;-67
2024/01/03 11:04:04;;;;;;;;;;;11.60;99.90;;;;;;5087177;28;19924;-67
2024/01/03 11:06:35;;;;;;;;;;;11.50;99.90;;;;;;5092519;28;19924;-68
2024/01/03 11:09:02;;;;;;;;;;;11.20;99.90;;;;;;5087282;28;19971;-67
2024/01/03 11:11:29;;;;;;;;;;;11.10;99.90;;;;;;5092375;28;20447;-67
2024/01/03 11:13:58;;;;;;;;;;;10.90;99.90;;;;;;5089455;28;19978;-67
2024/01/03 11:16:35;;;;;;;;;;;10.70;99.90;;;;;;5087106;28;20019;-67
2024/01/03 11:19:01;;;;;;;;;;;10.60;99.90;;;;;;5086655;28;20020;-67
2024/01/03 11:21:38;;;;;;;;;;;10.40;99.90;;;;;;5092642;28;19978;-68
2024/01/03 11:24:25;;;;;;;;;;;10.20;99.90;;;;;;5087534;28;19985;-69
2024/01/03 11:27:04;;;;;;;;;;;10.10;99.90;;;;;;5092031;28;19924;-68
2024/01/03 11:29:44;;;;;;;;;;;10.00;99.90;;;;;;5089588;28;19924;-68
2024/01/03 11:32:11;;;;;;;;;;;9.90;99.90;;;;;;5088192;28;20162;-68
2024/01/03 11:34:38;;;;;;;;;;;9.80;99.90;;;;;;5091991;28;19970;-68
2024/01/03 11:37:05;;;;;;;;;;;9.70;99.90;;;;;;5092028;28;19924;-68
2024/01/03 11:39:35;;;;;;;;;;;9.60;99.90;;;;;;5091704;28;19924;-68
2024/01/03 11:42:02;;;;;;;;;;;9.60;99.90;;;;;;5086316;28;19924;-68
2024/01/03 11:44:29;;;;;;;;;;;9.90;99.90;;;;;;5091717;28;20406;-68
2024/01/03 11:47:00;;;;;;;;;;;10.40;99.90;;;;;;5092181;28;20197;-68
2024/01/03 11:49:26;;;;;;;;;;;10.80;99.90;;;;;;5091604;28;19928;-69
2024/01/03 11:51:53;;;;;;;;;;;11.00;99.90;;;;;;5092067;28;19924;-68
2024/01/03 11:54:19;;;;;;;;;;;10.90;99.90;;;;;;5092061;28;19977;-68
2024/01/03 11:56:46;;;;;;;;;;;10.90;99.90;;;;;;5091596;28;19928;-69
2024/01/03 11:59:12;;;;;;;;;;;11.20;99.90;;;;;;5091606;28;19974;-68
2024/01/03 12:01:39;;;;;;;;;;;11.50;99.90;;;;;;5091691;28;20351;-69
2024/01/03 12:04:10;;;;;;;;;;;11.80;99.90;;;;;;5091731;28;19924;-69
2024/01/03 12:06:37;;;;;;;;;;;11.80;99.90;;;;;;5091719;28;19928;-69
2024/01/03 12:09:04;;;;;;;;;;;11.60;99.90;;;;;;5091419;28;19924;-68
2024/01/03 12:11:30;;;;;;;;;;;11.30;99.90;;;;;;5092166;28;20287;-68
2024/01/03 12:13:57;;;;;;;;;;;11.10;99.90;;;;;;5092835;28;20305;-68
2024/01/03 12:16:23;;;;;;;;;;;11.10;99.90;;;;;;5090747;28;19924;-69
2024/01/03 12:18:51;;;;;;;;;;;11.10;99.90;;;;;;5095779;28;19924;-68
2024/01/03 12:21:19;;;;;;;;;;;11.30;99.90;;;;;;5095708;28;19924;-69
2024/01/03 12:23:55;;;;;;;;;;;11.40;99.90;;;;;;5093736;28;19978;-68
2024/01/03 12:26:21;;;;;;;;;;;11.40;99.90;;;;;;5095785;28;19924;-68
2024/01/03 12:28:53;;;;;;;;;;;11.30;99.90;;;;;;5095616;28;19924;-69
2024/01/03 12:31:20;;;;;;;;;;;11.10;99.90;;;;;;5095548;28;19928;-68
2024/01/03 12:33:46;;;;;;;;;;;11.00;99.90;;;;;;5086970;28;19931;-68
2024/01/03 12:36:13;;;;;;;;;;;10.90;99.90;;;;;;5095877;28;19928;-68
2024/01/03 12:38:41;;;;;;;;;;;10.80;99.90;;;;;;5095139;28;20379;-69
2024/01/03 12:41:07;;;;;;;;;;;10.70;99.90;;;;;;5095379;28;19970;-68
2024/01/03 12:43:34;;;;;;;;;;;10.70;99.90;;;;;;5095575;28;19928;-68
2024/01/03 12:46:01;;;;;;;;;;;10.80;99.90;;;;;;5095189;28;20459;-68
2024/01/03 12:48:27;;;;;;;;;;;10.80;99.90;;;;;;5095314;28;19924;-69
2024/01/03 12:50:54;;;;;;;;;;;10.80;99.90;;;;;;5094948;28;19978;-68
2024/01/03 12:53:20;;;;;;;;;;;10.80;99.90;;;;;;5095390;28;19928;-68
2024/01/03 12:55:48;;;;;;;;;;;10.80;99.90;;;;;;5095265;28;20216;-68
2024/01/03 12:58:15;;;;;;;;;;;10.70;99.90;;;;;;5095332;28;20303;-69
2024/01/03 13:00:41;;;;;;;;;;;10.70;99.90;;;;;;5094532;28;20011;-69
2024/01/03 13:03:08;;;;;;;;;;;10.70;99.90;;;;;;5094965;28;19924;-68
2024/01/03 13:05:34;;;;;;;;;;;10.70;99.90;;;;;;5094936;28;19932;-69
2024/01/03 13:08:01;;;;;;;;;;;10.80;99.90;;;;;;5088329;28;20385;-69
2024/01/03 13:10:28;;;;;;;;;;;10.90;99.90;;;;;;5094693;28;20011;-68
2024/01/03 13:12:56;;;;;;;;;;;11.00;99.90;;;;;;5094903;28;19930;-68
2024/01/03 13:15:23;;;;;;;;;;;11.00;99.90;;;;;;5086766;28;20392;-69
2024/01/03 13:17:49;;;;;;;;;;;11.00;99.90;;;;;;5094587;28;20416;-69
2024/01/03 13:20:16;;;;;;;;;;;11.00;99.90;;;;;;5094836;28;19924;-68
2024/01/03 13:22:44;;;;;;;;;;;10.90;99.90;;;;;;5094132;28;19924;-68
2024/01/03 13:25:10;;;;;;;;;;;10.90;99.90;;;;;;5094670;28;19928;-68
2024/01/03 13:27:37;;;;;;;;;;;10.90;99.90;;;;;;5094478;28;19989;-71
2024/01/03 13:30:07;;;;;;;;;;;10.90;99.90;;;;;;5093523;28;20447;-68
2024/01/03 13:32:36;;;;;;;;;;;10.90;99.90;;;;;;5094134;28;19924;-68
2024/01/03 13:35:02;;;;;;;;;;;11.00;99.90;;;;;;5087546;28;19931;-67
2024/01/03 13:37:29;;;;;;;;;;;11.00;99.90;;;;;;5094277;28;19928;-67
2024/01/03 13:39:55;;;;;;;;;;;11.00;99.90;;;;;;5093819;28;20421;-67
2024/01/03 13:42:22;;;;;;;;;;;11.00;99.90;;;;;;5094020;28;20342;-67
2024/01/03 13:44:48;;;;;;;;;;;10.90;99.90;;;;;;5093891;28;19977;-67
2024/01/03 13:47:16;;;;;;;;;;;10.90;99.90;;;;;;5094360;28;19928;-67
2024/01/03 13:49:43;;;;;;;;;;;10.90;99.90;;;;;;5093970;28;19928;-68
2024/01/03 13:52:09;;;;;;;;;;;10.80;99.90;;;;;;5094203;28;19924;-67
2024/01/03 13:54:36;;;;;;;;;;;10.70;99.90;;;;;;5093687;28;20452;-67
2024/01/03 13:57:02;;;;;;;;;;;10.70;99.90;;;;;;5094422;28;19967;-67
2024/01/03 13:59:29;;;;;;;;;;;10.70;99.90;;;;;;5093405;28;19928;-67
2024/01/03 14:01:55;;;;;;;;;;;10.70;99.90;;;;;;5093880;28;19930;-67
2024/01/03 14:04:23;;;;;;;;;;;10.60;99.90;;;;;;5093741;28;20306;-67
2024/01/03 14:06:51;;;;;;;;;;;10.50;99.90;;;;;;5093571;28;19928;-67
2024/01/03 14:09:18;;;;;;;;;;;10.40;99.90;;;;;;5093447;28;19970;-67
2024/01/03 14:11:44;;;;;;;;;;;10.30;99.90;;;;;;5093448;28;20011;-66
2024/01/03 14:14:11;;;;;;;;;;;10.30;99.90;;;;;;5088368;28;19936;-66
2024/01/03 14:16:44;;;;;;;;;;;10.20;99.90;;;;;;5090279;28;19928;-66
2024/01/03 14:19:10;;;;;;;;;;;10.20;99.90;;;;;;5093383;28;19969;-66
2024/01/03 14:21:43;;;;;;;;;;;10.10;99.90;;;;;;5093654;28;19977;-67
2024/01/03 14:24:10;;;;;;;;;;;10.00;99.90;;;;;;5093166;28;20294;-67
2024/01/03 14:26:36;;;;;;;;;;;10.00;99.90;;;;;;5092860;28;19924;-67